CST,Max TemperatureF,Mean TemperatureF,Min TemperatureF,Max Dew PointF,MeanDew PointF,Min DewpointF,Max Humidity, Mean Humidity, Min Humidity, Max Sea Level PressureIn, Mean Sea Level PressureIn, Min Sea Level PressureIn, Max VisibilityMiles, Mean VisibilityMiles, Min VisibilityMiles, Max Wind SpeedMPH, Mean Wind SpeedMPH, Max Gust SpeedMPH,PrecipitationIn, CloudCover, Events, WindDirDegrees
2013-11-1,46,42,39,45,39,35,93,86,76,29.75,29.44,29.15,10,9,3,17,11,26,0.14,8,Rain,319
2013-11-2,43,34,27,34,31,25,93,79,57,30.19,29.94,29.72,10,10,7,14,6,17,0.00,7,Rain,5
2013-11-3,44,34,25,36,31,22,96,79,60,30.31,30.26,30.20,10,10,8,13,4,22,0.00,6,,149
2013-11-4,48,45,42,43,39,36,93,79,66,30.24,30.08,29.97,10,8,4,17,13,33,0.00,8,Rain,164
2013-11-5,52,42,32,40,34,29,96,75,43,30.25,30.14,29.95,10,9,5,12,4,,0.17,4,Rain,307
2013-11-6,37,34,32,34,30,22,93,83,64,30.07,29.90,29.79,10,8,2,17,12,28,0.11,8,Rain-Snow,328
2013-11-7,35,32,30,27,24,21,76,70,64,30.16,30.11,30.03,10,10,9,14,10,20,0.00,8,Snow,284
2013-11-8,41,34,28,34,24,19,93,66,43,30.23,30.09,29.80,10,8,2,14,7,23,0.02,5,Rain-Snow,196
2013-11-9,41,38,35,37,33,28,97,82,70,29.90,29.71,29.59,10,8,3,17,11,29,0.16,8,Rain,248
2013-11-10,39,36,33,31,27,25,82,69,57,30.22,30.12,29.92,10,10,9,22,12,30,0.00,5,Snow,281
2013-11-11,35,28,21,31,18,10,89,70,51,30.55,30.23,29.97,10,8,1,24,13,37,0.00,7,Snow,319
2013-11-12,28,23,18,12,7,2,74,53,33,30.64,30.56,30.43,10,10,10,18,9,28,0.00,2,,288
2013-11-13,48,34,19,27,19,8,63,54,42,30.41,30.06,29.84,10,10,10,16,7,25,0.00,0,,227
2013-11-14,42,35,28,30,27,24,92,71,60,29.83,29.81,29.78,10,10,9,9,5,,0.00,4,,207
2013-11-15,54,38,23,34,30,20,92,74,40,29.87,29.84,29.80,10,8,3,9,2,,0.00,0,,174
2013-11-16,52,42,32,50,40,30,100,92,81,29.83,29.60,29.36,10,4,1,15,8,23,0.35,7,Rain,148
2013-11-17,54,46,37,52,45,28,100,89,67,29.40,29.29,29.17,10,6,1,23,8,43,0.00,7,Rain,232
2013-11-18,37,32,27,26,19,15,75,63,56,30.22,29.82,29.44,10,9,4,29,20,40,0.00,8,Rain-Snow,304
2013-11-19,34,25,16,26,17,11,85,66,46,30.37,30.29,30.17,10,10,10,13,8,24,0.00,3,,163
2013-11-20,39,36,32,32,29,26,93,81,65,30.22,30.15,30.09,10,8,2,16,10,24,0.00,8,Snow,154
2013-11-21,37,32,28,34,31,23,100,91,78,30.34,30.17,30.08,10,5,0,15,6,23,0.00,8,Fog-Snow,300
2013-11-22,32,26,19,22,16,7,81,69,41,30.47,30.36,30.29,10,7,2,18,13,32,0.00,6,Snow,318
2013-11-23,19,14,9,9,3,-2,77,65,49,30.67,30.53,30.33,10,9,2,22,15,31,0.00,5,Snow,312
2013-11-24,25,17,10,7,2,-5,77,55,34,30.63,30.41,30.01,10,10,5,14,8,22,0.00,4,Snow,226
2013-11-25,34,30,25,25,19,8,70,62,49,29.98,29.86,29.78,10,10,9,15,10,26,0.00,8,,243
2013-11-26,33,20,8,25,13,1,86,70,50,30.20,30.02,29.86,10,7,1,16,10,32,0.00,6,Snow,312
2013-11-27,25,17,9,16,12,4,88,74,58,30.25,30.19,30.11,10,8,1,13,7,22,0.00,5,Snow,332
2013-11-28,24,14,3,17,13,-1,93,83,64,30.50,30.24,30.12,10,6,1,9,2,,0.00,6,Snow,39
2013-11-29,26,13,0,17,8,-5,93,77,63,30.63,30.52,30.33,10,10,8,9,2,,0.00,4,,169
2013-11-30,35,30,26,25,22,17,82,72,61,30.30,30.11,30.03,10,9,6,12,6,18,0.00,7,,192